createdAt,value
2022-08-29T00:01:28.849Z,1.02
2022-08-29T00:03:57.467Z,0.77
2022-08-29T00:06:25.579Z,0.80
2022-08-29T00:08:53.098Z,0.80
2022-08-29T00:11:20.908Z,0.90
2022-08-29T00:13:48.823Z,0.75
2022-08-29T00:16:16.407Z,1.55
2022-08-29T00:18:44.025Z,0.95
2022-08-29T00:21:11.550Z,1.10
2022-08-29T00:23:40.459Z,1.10
2022-08-29T00:26:08.314Z,0.80
2022-08-29T00:28:35.859Z,0.85
2022-08-29T00:31:03.506Z,0.90
2022-08-29T00:33:31.615Z,0.90
2022-08-29T00:35:59.298Z,1.17
2022-08-29T00:38:27.770Z,0.95
2022-08-29T00:40:58.306Z,1.00
2022-08-29T00:43:32.929Z,0.85
2022-08-29T00:46:38.721Z,0.98
2022-08-29T00:49:11.796Z,1.00
2022-08-29T00:51:41.050Z,0.70
2022-08-29T00:54:11.303Z,1.27
2022-08-29T00:56:41.551Z,0.80
2022-08-29T00:59:23.209Z,0.82
2022-08-29T01:01:53.819Z,1.02
2022-08-29T01:04:24.327Z,0.90
2022-08-29T01:06:53.290Z,0.80
2022-08-29T01:09:21.349Z,1.00
2022-08-29T01:12:06.993Z,0.90
2022-08-29T01:14:38.451Z,1.55
2022-08-29T01:17:10.174Z,0.93
2022-08-29T01:19:41.863Z,1.20
2022-08-29T01:22:37.114Z,1.17
2022-08-29T01:25:09.994Z,0.90
2022-08-29T01:27:41.166Z,0.77
2022-08-29T01:30:10.157Z,1.42
2022-08-29T01:32:37.966Z,1.00
2022-08-29T01:35:08.559Z,0.90
2022-08-29T01:37:39.542Z,1.00
2022-08-29T01:40:08.657Z,0.80
2022-08-29T01:42:37.386Z,0.82
2022-08-29T01:45:09.876Z,0.70
2022-08-29T01:47:39.966Z,0.80
2022-08-29T01:50:13.376Z,0.75
2022-08-29T01:52:42.961Z,0.93
2022-08-29T01:55:10.586Z,1.60
2022-08-29T01:57:40.875Z,0.98
2022-08-29T02:00:10.609Z,2.17
2022-08-29T02:02:38.360Z,1.30
2022-08-29T02:05:07.201Z,0.65
2022-08-29T02:07:34.690Z,1.13
2022-08-29T02:10:02.166Z,0.90
2022-08-29T02:12:29.714Z,0.73
2022-08-29T02:14:57.214Z,0.90
2022-08-29T02:17:25.463Z,0.90
2022-08-29T02:19:52.934Z,0.85
2022-08-29T02:22:20.790Z,1.05
2022-08-29T02:24:48.349Z,0.95
2022-08-29T02:27:15.858Z,0.80
2022-08-29T02:29:43.375Z,0.80
2022-08-29T02:32:14.533Z,0.98
2022-08-29T02:34:47.775Z,1.38
2022-08-29T02:37:16.943Z,1.05
2022-08-29T02:39:44.453Z,1.30
2022-08-29T02:42:11.919Z,1.05
2022-08-29T02:44:39.441Z,1.10
2022-08-29T02:47:09.038Z,1.00
2022-08-29T02:49:36.650Z,1.23
2022-08-29T02:52:06.592Z,1.00
2022-08-29T02:54:34.746Z,1.00
2022-08-29T02:57:02.251Z,0.73
2022-08-29T02:59:29.771Z,1.10
2022-08-29T03:01:57.553Z,1.00
2022-08-29T03:04:25.119Z,0.70
2022-08-29T03:06:52.626Z,0.63
2022-08-29T03:09:20.169Z,0.85
2022-08-29T03:11:47.723Z,0.90
2022-08-29T03:14:16.024Z,0.80
2022-08-29T03:16:43.654Z,0.93
2022-08-29T03:19:11.394Z,0.90
2022-08-29T03:21:38.873Z,0.70
2022-08-29T03:24:06.479Z,1.00
2022-08-29T03:26:33.985Z,0.88
2022-08-29T03:29:01.457Z,0.73
2022-08-29T03:31:28.974Z,1.02
2022-08-29T03:33:57.060Z,1.00
2022-08-29T03:36:27.023Z,1.95
2022-08-29T03:38:54.699Z,0.77
2022-08-29T03:41:24.855Z,1.50
2022-08-29T03:43:52.910Z,1.40
2022-08-29T03:46:20.459Z,0.90
2022-08-29T03:48:48.455Z,1.00
2022-08-29T03:51:18.247Z,0.82
2022-08-29T03:53:46.001Z,1.02
2022-08-29T03:56:18.897Z,0.90
2022-08-29T03:58:51.951Z,1.10
2022-08-29T04:01:22.594Z,1.23
2022-08-29T04:03:50.330Z,1.00
2022-08-29T04:06:17.976Z,1.38
2022-08-29T04:08:48.252Z,1.10
2022-08-29T04:11:17.872Z,1.02
2022-08-29T04:13:45.679Z,1.52
2022-08-29T04:16:16.025Z,1.27
2022-08-29T04:18:44.338Z,0.98
2022-08-29T04:21:13.049Z,0.60
2022-08-29T04:23:41.181Z,0.80
2022-08-29T04:26:37.010Z,0.90
2022-08-29T04:29:05.821Z,1.02
2022-08-29T04:31:33.424Z,1.75
2022-08-29T04:34:00.981Z,0.90
2022-08-29T04:36:29.107Z,0.70
2022-08-29T04:38:57.392Z,1.02
2022-08-29T04:41:24.912Z,1.25
2022-08-29T04:43:52.450Z,0.80
2022-08-29T04:46:24.400Z,0.90
2022-08-29T04:51:21.169Z,0.95
2022-08-29T04:53:48.951Z,0.85
2022-08-29T04:56:16.497Z,0.90
2022-08-29T04:58:45.019Z,0.85
2022-08-29T05:01:18.617Z,1.20
2022-08-29T05:03:46.239Z,0.70
2022-08-29T05:06:16.377Z,0.93
2022-08-29T05:08:46.238Z,0.90
2022-08-29T05:11:22.518Z,1.00
2022-08-29T05:13:52.537Z,1.60
2022-08-29T05:16:20.417Z,1.33
2022-08-29T05:18:48.490Z,0.90
2022-08-29T05:21:27.122Z,0.93
2022-08-29T05:23:57.131Z,1.00
2022-08-29T05:26:25.888Z,1.20
2022-08-29T05:28:53.531Z,1.00
2022-08-29T05:31:22.303Z,1.20
2022-08-29T05:33:50.184Z,1.50
2022-08-29T05:36:17.946Z,1.00
2022-08-29T05:38:46.033Z,1.00
2022-08-29T05:41:13.545Z,1.00
2022-08-29T05:43:41.039Z,1.63
2022-08-29T05:46:11.316Z,1.27
2022-08-29T05:48:42.662Z,1.30
2022-08-29T05:51:20.425Z,1.07
2022-08-29T05:53:48.562Z,1.10
2022-08-29T05:56:25.600Z,1.90
2022-08-29T05:58:53.999Z,1.90
2022-08-29T06:01:32.740Z,1.35
2022-08-29T06:04:01.650Z,1.40
2022-08-29T06:06:31.230Z,1.48
2022-08-29T06:09:00.169Z,1.88
2022-08-29T06:11:31.765Z,1.60
2022-08-29T06:14:00.462Z,1.70
2022-08-29T06:16:30.007Z,1.50
2022-08-29T06:18:57.907Z,1.42
2022-08-29T06:21:26.031Z,1.80
2022-08-29T06:23:53.550Z,2.10
2022-08-29T06:26:21.112Z,1.50
2022-08-29T06:28:49.470Z,1.45
2022-08-29T06:31:27.307Z,2.13
2022-08-29T06:33:57.594Z,1.70
2022-08-29T06:36:26.073Z,1.70
2022-08-29T06:38:56.124Z,1.92
2022-08-29T06:41:24.800Z,2.58
2022-08-29T06:43:53.118Z,2.95
2022-08-29T06:46:29.931Z,1.65
2022-08-29T06:48:59.230Z,1.80
2022-08-29T06:51:32.678Z,1.58
2022-08-29T06:54:07.051Z,1.58
2022-08-29T06:56:37.114Z,1.60
2022-08-29T06:59:05.668Z,2.33
2022-08-29T07:01:34.312Z,2.28
2022-08-29T07:04:03.185Z,1.40
2022-08-29T07:06:31.457Z,1.60
2022-08-29T07:09:00.079Z,1.75
2022-08-29T07:11:31.018Z,2.47
2022-08-29T07:14:01.662Z,1.55
2022-08-29T07:16:30.780Z,1.50
2022-08-29T07:18:58.393Z,1.50
2022-08-29T07:21:28.547Z,1.90
2022-08-29T07:23:58.310Z,1.90
2022-08-29T07:26:30.402Z,1.60
2022-08-29T07:31:31.379Z,1.65
2022-08-29T07:34:02.024Z,1.55
2022-08-29T07:36:31.831Z,1.80
2022-08-29T07:38:59.360Z,1.27
2022-08-29T07:41:28.505Z,1.20
2022-08-29T07:43:56.039Z,1.42
2022-08-29T07:46:25.559Z,1.48
2022-08-29T07:48:53.641Z,1.20
2022-08-29T07:51:23.782Z,1.30
2022-08-29T07:53:52.666Z,1.02
2022-08-29T07:56:24.822Z,1.27
2022-08-29T08:01:21.472Z,1.20
2022-08-29T08:03:50.900Z,1.23
2022-08-29T08:06:20.974Z,1.10
2022-08-29T08:08:49.103Z,1.70
2022-08-29T08:11:17.783Z,1.27
2022-08-29T08:13:45.411Z,1.13
2022-08-29T08:16:17.162Z,1.67
2022-08-29T08:18:45.612Z,1.33
2022-08-29T08:21:13.858Z,1.30
2022-08-29T08:23:42.575Z,1.10
2022-08-29T08:26:12.226Z,1.20
2022-08-29T08:28:40.580Z,1.10
2022-08-29T08:31:10.211Z,1.30
2022-08-29T08:33:39.333Z,1.30
2022-08-29T08:36:22.668Z,1.45
2022-08-29T08:38:51.666Z,1.60
2022-08-29T08:41:29.700Z,1.45
2022-08-29T08:44:07.169Z,1.58
2022-08-29T08:46:43.119Z,1.40
2022-08-29T08:49:19.730Z,1.58
2022-08-29T08:51:53.763Z,1.77
2022-08-29T08:54:25.972Z,1.60
2022-08-29T08:57:08.684Z,1.27
2022-08-29T08:59:43.411Z,1.48
2022-08-29T09:02:35.296Z,1.20
2022-08-29T09:05:20.690Z,1.40
2022-08-29T09:07:50.912Z,2.90
2022-08-29T09:10:28.957Z,1.63
2022-08-29T09:13:12.117Z,1.38
2022-08-29T09:15:44.451Z,2.17
2022-08-29T09:18:27.166Z,1.23
2022-08-29T09:20:54.709Z,1.52
2022-08-29T09:23:22.127Z,1.30
2022-08-29T09:25:49.818Z,1.40
2022-08-29T09:28:17.404Z,1.20
2022-08-29T09:31:06.179Z,1.67
2022-08-29T09:33:45.856Z,2.42
2022-08-29T09:36:15.790Z,1.75
2022-08-29T09:38:43.425Z,1.60
2022-08-29T09:41:11.554Z,2.15
2022-08-29T09:43:45.265Z,0.98
2022-08-29T09:46:12.743Z,1.50
2022-08-29T09:48:43.587Z,1.63
2022-08-29T09:51:11.228Z,1.73
2022-08-29T09:53:38.914Z,1.42
2022-08-29T09:56:09.266Z,1.40
2022-08-29T09:58:41.700Z,1.33
2022-08-29T10:01:24.846Z,1.42
2022-08-29T10:04:03.152Z,1.00
2022-08-29T10:06:34.163Z,1.23
2022-08-29T10:09:09.402Z,1.50
2022-08-29T10:11:54.297Z,1.00
2022-08-29T10:14:41.713Z,1.50
2022-08-29T10:17:56.558Z,1.50
2022-08-29T10:20:36.266Z,1.55
2022-08-29T10:23:37.714Z,1.30
2022-08-29T10:26:35.483Z,1.27
2022-08-29T10:29:20.410Z,1.60
2022-08-29T10:32:32.402Z,1.17
2022-08-29T10:35:24.030Z,1.00
2022-08-29T10:38:06.630Z,1.48
2022-08-29T10:40:48.794Z,1.10
2022-08-29T10:43:38.208Z,1.40
2022-08-29T10:46:27.478Z,1.00
2022-08-29T10:49:00.839Z,1.08
2022-08-29T10:51:42.810Z,1.35
2022-08-29T10:54:33.370Z,1.10
2022-08-29T10:57:02.203Z,1.20
2022-08-29T10:59:35.383Z,1.17
2022-08-29T11:02:13.831Z,1.13
2022-08-29T11:04:46.841Z,1.00
2022-08-29T11:07:26.981Z,1.00
2022-08-29T11:09:59.899Z,1.00
2022-08-29T11:12:51.537Z,1.23
2022-08-29T11:15:48.365Z,1.13
2022-08-29T11:18:31.341Z,1.73
2022-08-29T11:21:17.241Z,1.55
2022-08-29T11:23:49.262Z,1.10
2022-08-29T11:26:28.978Z,1.00
2022-08-29T11:29:14.791Z,1.52
2022-08-29T11:32:28.794Z,1.30
2022-08-29T11:35:14.802Z,1.40
2022-08-29T11:37:51.121Z,1.38
2022-08-29T11:43:47.978Z,1.23
2022-08-29T11:46:17.028Z,1.83
2022-08-29T11:48:47.668Z,1.00
2022-08-29T11:51:51.632Z,0.95
2022-08-29T11:54:25.312Z,1.00
2022-08-29T11:57:13.114Z,1.58
2022-08-29T11:59:49.674Z,1.30
2022-08-29T12:02:29.270Z,1.10
2022-08-29T12:05:05.505Z,1.23
2022-08-29T12:07:43.401Z,1.13
2022-08-29T12:10:23.681Z,1.10
2022-08-29T12:12:56.571Z,1.17
2022-08-29T12:15:33.329Z,0.90
2022-08-29T12:18:03.878Z,0.80
2022-08-29T12:20:31.700Z,1.37
2022-08-29T12:23:03.578Z,1.00
2022-08-29T12:28:18.024Z,1.10
2022-08-29T12:31:05.045Z,0.90
2022-08-29T12:33:36.316Z,1.00
2022-08-29T12:36:28.756Z,1.00
2022-08-29T12:39:19.462Z,1.08
2022-08-29T12:42:21.394Z,0.90
2022-08-29T12:45:02.202Z,0.95
2022-08-29T12:47:45.778Z,0.80
2022-08-29T12:50:22.070Z,0.90
2022-08-29T12:53:20.399Z,0.90
2022-08-29T12:55:51.647Z,1.02
2022-08-29T12:58:47.105Z,0.80
2022-08-29T13:01:26.537Z,0.95
2022-08-29T13:04:03.231Z,0.90
2022-08-29T13:06:32.487Z,0.77
2022-08-29T13:09:00.805Z,1.20
2022-08-29T13:11:32.085Z,0.65
2022-08-29T13:14:12.445Z,1.05
2022-08-29T13:16:40.915Z,0.90
2022-08-29T13:19:22.578Z,0.70
2022-08-29T13:21:50.166Z,0.80
2022-08-29T13:24:20.695Z,0.82
2022-08-29T13:27:06.246Z,0.70
2022-08-29T13:29:42.391Z,0.90
2022-08-29T13:32:09.921Z,0.80
2022-08-29T13:34:37.515Z,1.00
2022-08-29T13:37:10.616Z,0.70
2022-08-29T13:39:48.592Z,0.80
2022-08-29T13:42:20.586Z,1.00
2022-08-29T13:44:48.082Z,0.80
2022-08-29T13:47:18.461Z,0.80
2022-08-29T13:49:46.920Z,0.80
2022-08-29T13:52:15.507Z,0.73
2022-08-29T13:54:43.591Z,0.95
2022-08-29T13:57:21.972Z,1.10
2022-08-29T13:59:50.260Z,1.02
2022-08-29T14:02:19.182Z,0.90
2022-08-29T14:04:48.657Z,0.70
2022-08-29T14:07:28.114Z,0.90
2022-08-29T14:09:55.751Z,0.80
2022-08-29T14:12:33.695Z,0.90
2022-08-29T14:15:08.166Z,0.77
2022-08-29T14:17:37.467Z,1.00
2022-08-29T14:20:06.808Z,0.90
2022-08-29T14:22:34.299Z,1.08
2022-08-29T14:25:02.919Z,0.85
2022-08-29T14:27:30.858Z,1.05
2022-08-29T14:29:58.610Z,0.90
2022-08-29T14:32:26.996Z,0.90
2022-08-29T14:34:54.775Z,0.80
2022-08-29T14:37:22.466Z,0.90
2022-08-29T14:39:50.530Z,1.00
2022-08-29T14:42:19.434Z,1.25
2022-08-29T14:44:47.036Z,1.45
2022-08-29T14:47:14.997Z,0.88
2022-08-29T14:49:42.742Z,1.00
2022-08-29T14:52:11.879Z,0.80
2022-08-29T14:54:39.401Z,0.90
2022-08-29T14:57:07.215Z,1.15
2022-08-29T14:59:36.115Z,0.90
2022-08-29T15:02:04.967Z,1.00
2022-08-29T15:04:36.796Z,0.70
2022-08-29T15:07:06.306Z,0.95
2022-08-29T15:09:34.440Z,0.93
2022-08-29T15:12:01.987Z,0.85
2022-08-29T15:14:29.645Z,0.93
2022-08-29T15:16:57.223Z,1.10
2022-08-29T15:22:13.677Z,0.85
2022-08-29T15:24:41.723Z,0.93
2022-08-29T15:27:09.939Z,0.90
2022-08-29T15:29:40.500Z,0.90
2022-08-29T15:32:08.323Z,0.80
2022-08-29T15:34:36.654Z,1.00
2022-08-29T15:37:05.995Z,0.93
2022-08-29T15:39:33.926Z,0.82
2022-08-29T15:42:03.637Z,1.00
2022-08-29T15:44:31.710Z,1.10
2022-08-29T15:46:59.391Z,1.10
2022-08-29T15:49:29.065Z,1.77
2022-08-29T15:51:57.430Z,1.30
2022-08-29T15:54:26.652Z,1.33
2022-08-29T15:56:54.629Z,0.90
2022-08-29T15:59:41.172Z,1.13
2022-08-29T16:02:11.334Z,0.80
2022-08-29T16:04:42.821Z,0.90
2022-08-29T16:07:12.624Z,0.93
2022-08-29T16:09:40.989Z,0.93
2022-08-29T16:12:08.845Z,0.75
2022-08-29T16:14:58.446Z,0.77
2022-08-29T16:17:24.066Z,0.70
2022-08-29T16:19:51.690Z,0.88
2022-08-29T16:22:19.630Z,0.65
2022-08-29T16:24:47.145Z,0.82
2022-08-29T16:27:15.602Z,1.33
2022-08-29T16:29:44.213Z,1.13
2022-08-29T16:32:11.740Z,0.90
2022-08-29T16:34:39.280Z,0.70
2022-08-29T16:37:08.014Z,1.15
2022-08-29T16:39:35.527Z,1.17
2022-08-29T16:42:03.085Z,0.73
2022-08-29T16:44:31.770Z,0.90
2022-08-29T16:46:59.317Z,0.93
2022-08-29T16:49:26.791Z,0.68
2022-08-29T16:51:54.337Z,1.42
2022-08-29T16:54:22.078Z,1.02
2022-08-29T16:56:49.596Z,0.80
2022-08-29T16:59:17.251Z,1.23
2022-08-29T17:01:50.399Z,0.63
2022-08-29T17:04:21.441Z,0.90
2022-08-29T17:06:49.198Z,0.70
2022-08-29T17:09:17.889Z,1.00
2022-08-29T17:11:44.930Z,0.95
2022-08-29T17:14:11.582Z,0.82
2022-08-29T17:16:40.233Z,0.90
2022-08-29T17:19:09.071Z,1.00
2022-08-29T17:21:36.878Z,0.80
2022-08-29T17:24:07.239Z,0.80
2022-08-29T17:26:40.717Z,0.95
2022-08-29T17:29:09.562Z,1.08
2022-08-29T17:31:38.852Z,0.75
2022-08-29T17:34:08.332Z,0.90
2022-08-29T17:36:37.500Z,1.20
2022-08-29T17:39:06.973Z,2.08
2022-08-29T17:41:37.149Z,1.17
2022-08-29T17:44:07.235Z,1.67
2022-08-29T17:46:35.247Z,1.10
2022-08-29T17:49:07.482Z,1.15
2022-08-29T17:51:35.814Z,1.23
2022-08-29T17:54:04.496Z,2.33
2022-08-29T17:56:44.860Z,1.35
2022-08-29T17:59:14.403Z,1.13
2022-08-29T18:01:42.187Z,1.25
2022-08-29T18:04:09.926Z,1.80
2022-08-29T18:06:38.304Z,1.55
2022-08-29T18:09:06.940Z,1.77
2022-08-29T18:11:39.875Z,1.30
2022-08-29T18:14:08.596Z,1.88
2022-08-29T18:16:36.776Z,1.50
2022-08-29T18:19:05.215Z,2.35
2022-08-29T18:21:33.064Z,1.30
2022-08-29T18:24:01.194Z,1.75
2022-08-29T18:26:29.538Z,1.25
2022-08-29T18:28:57.049Z,1.52
2022-08-29T18:31:24.686Z,1.08
2022-08-29T18:34:00.962Z,2.00
2022-08-29T18:36:33.367Z,1.50
2022-08-29T18:39:02.054Z,2.08
2022-08-29T18:41:29.827Z,1.90
2022-08-29T18:43:58.886Z,1.40
2022-08-29T18:46:28.149Z,1.58
2022-08-29T18:48:55.828Z,1.30
2022-08-29T18:51:23.395Z,1.70
2022-08-29T18:53:50.965Z,2.78
2022-08-29T18:56:18.682Z,2.03
2022-08-29T18:58:46.167Z,1.95
2022-08-29T19:01:27.149Z,1.90
2022-08-29T19:03:58.022Z,1.83
2022-08-29T19:06:27.278Z,1.88
2022-08-29T19:08:57.123Z,1.90
2022-08-29T19:11:26.125Z,1.67
2022-08-29T19:13:53.916Z,1.75
2022-08-29T19:16:23.852Z,1.70
2022-08-29T19:18:52.395Z,1.90
2022-08-29T19:21:19.434Z,1.63
2022-08-29T19:23:52.298Z,1.80
2022-08-29T19:26:28.469Z,1.77
2022-08-29T19:28:59.235Z,1.98
2022-08-29T19:31:28.923Z,1.88
2022-08-29T19:33:57.103Z,2.88
2022-08-29T19:36:24.865Z,2.15
2022-08-29T19:38:52.479Z,2.17
2022-08-29T19:41:20.291Z,1.98
2022-08-29T19:43:47.982Z,2.00
2022-08-29T19:46:21.304Z,2.20
2022-08-29T19:48:51.290Z,1.70
2022-08-29T19:51:21.424Z,1.80
2022-08-29T19:53:50.019Z,1.83
2022-08-29T19:56:17.895Z,1.52
2022-08-29T19:58:45.548Z,1.58
2022-08-29T20:01:13.246Z,1.55
2022-08-29T20:03:42.692Z,1.80
2022-08-29T20:06:10.741Z,1.80
2022-08-29T20:08:42.641Z,2.53
2022-08-29T20:11:21.020Z,2.00
2022-08-29T20:13:51.255Z,3.25
2022-08-29T20:16:22.221Z,2.22
2022-08-29T20:18:51.804Z,2.35
2022-08-29T20:21:20.207Z,1.73
2022-08-29T20:23:49.892Z,1.95
2022-08-29T20:26:20.319Z,1.65
2022-08-29T20:28:49.190Z,1.88
2022-08-29T20:31:16.827Z,2.00
2022-08-29T20:33:44.841Z,2.08
2022-08-29T20:36:30.209Z,2.17
2022-08-29T20:38:57.768Z,1.40
2022-08-29T20:41:25.657Z,1.92
2022-08-29T20:43:53.160Z,2.03
2022-08-29T20:46:21.101Z,1.83
2022-08-29T20:48:48.682Z,1.17
2022-08-29T20:51:16.213Z,1.40
2022-08-29T20:53:43.716Z,1.40
2022-08-29T20:56:11.329Z,1.58
2022-08-29T20:58:38.825Z,1.77
2022-08-29T21:01:06.727Z,1.70
2022-08-29T21:03:52.797Z,1.30
2022-08-29T21:06:21.770Z,1.73
2022-08-29T21:08:49.800Z,1.40
2022-08-29T21:11:17.320Z,1.20
2022-08-29T21:13:45.046Z,1.20
2022-08-29T21:16:13.023Z,1.30
2022-08-29T21:18:41.363Z,1.63
2022-08-29T21:21:13.322Z,1.10
2022-08-29T21:23:42.044Z,1.48
2022-08-29T21:26:09.660Z,1.20
2022-08-29T21:28:37.997Z,1.35
2022-08-29T21:31:09.419Z,1.42
2022-08-29T21:33:42.241Z,1.67
2022-08-29T21:36:14.726Z,1.67
2022-08-29T21:38:42.233Z,1.63
2022-08-29T21:41:11.614Z,1.30
2022-08-29T21:43:40.517Z,1.88
2022-08-29T21:46:15.968Z,1.02
2022-08-29T21:48:43.870Z,1.20
2022-08-29T21:51:12.915Z,1.48
2022-08-29T21:53:41.633Z,1.42
2022-08-29T21:56:09.447Z,1.20
2022-08-29T21:58:36.930Z,1.15
2022-08-29T22:01:04.979Z,1.67
2022-08-29T22:03:32.913Z,1.30
2022-08-29T22:06:00.385Z,1.35
2022-08-29T22:08:27.917Z,1.60
2022-08-29T22:10:55.432Z,1.45
2022-08-29T22:13:22.988Z,1.80
2022-08-29T22:16:07.798Z,1.50
2022-08-29T22:18:35.834Z,1.75
2022-08-29T22:21:04.977Z,1.80
2022-08-29T22:23:32.503Z,1.98
2022-08-29T22:26:00.010Z,1.40
2022-08-29T22:28:27.493Z,1.20
2022-08-29T22:30:55.064Z,1.63
2022-08-29T22:33:22.697Z,1.33
2022-08-29T22:35:50.221Z,1.30
2022-08-29T22:38:17.755Z,1.90
2022-08-29T22:40:48.023Z,2.03
2022-08-29T22:43:15.971Z,1.35
2022-08-29T22:45:44.426Z,1.45
2022-08-29T22:48:13.238Z,1.70
2022-08-29T22:50:45.894Z,1.20
2022-08-29T22:53:25.470Z,1.35
2022-08-29T22:55:52.957Z,1.27
2022-08-29T22:58:20.429Z,1.67
2022-08-29T23:00:47.899Z,2.25
2022-08-29T23:03:15.839Z,1.40
2022-08-29T23:05:43.676Z,1.80
2022-08-29T23:08:11.218Z,1.40
2022-08-29T23:10:38.772Z,1.88
2022-08-29T23:13:06.256Z,1.33
2022-08-29T23:15:33.941Z,1.58
2022-08-29T23:18:03.268Z,1.20
2022-08-29T23:20:30.719Z,2.00
2022-08-29T23:22:58.351Z,1.60
2022-08-29T23:25:25.818Z,1.38
2022-08-29T23:27:53.306Z,1.95
2022-08-29T23:30:20.832Z,1.85
2022-08-29T23:32:48.339Z,1.95
2022-08-29T23:35:15.854Z,2.38
2022-08-29T23:37:43.348Z,2.10
2022-08-29T23:40:11.318Z,2.08
2022-08-29T23:42:38.861Z,2.53
2022-08-29T23:45:06.911Z,1.88
2022-08-29T23:47:36.098Z,2.03
2022-08-29T23:50:05.918Z,1.83
2022-08-29T23:52:33.468Z,2.33
2022-08-29T23:55:01.987Z,2.13
2022-08-29T23:57:29.435Z,2.22
